<?xml version="1.0" encoding="UTF-8" standalone="no" ?>
<gpx xmlns="http://www.topografix.com/GPX/1/1" xmlns:xsi="http://www.w3.org/2001/XMLSchema-instance" xsi:schemaLocation="http://www.topografix.com/GPX/1/1 http://www.topografix.com/GPX/1/1/gpx.xsd" version="1.1" creator="VisuGPX - https://www.visugpx.com">
  <metadata>
    <name>St Hipollyte de Montaigu</name>
    <desc><![CDATA[VTT Gard St Hippolyte de Montaigu 27kms]]></desc>
  </metadata>
  <trk>
    <name><![CDATA[vttuzes10]]></name>
    <trkseg>
      <trkpt lat="44.03204" lon="4.49263">
        <ele>146.2578125</ele>
        <time>2012-08-07T14:56:33Z</time>
      </trkpt>
      <trkpt lat="44.03238" lon="4.48964">
        <ele>137.3242188</ele>
      </trkpt>
      <trkpt lat="44.03207" lon="4.48953">
        <ele>135.0585938</ele>
      </trkpt>
      <trkpt lat="44.03081" lon="4.48761">
        <ele>130.5</ele>
      </trkpt>
      <trkpt lat="44.02982" lon="4.48586">
        <ele>132.1992188</ele>
      </trkpt>
      <trkpt lat="44.02937" lon="4.4852">
        <ele>137.1953125</ele>
      </trkpt>
      <trkpt lat="44.02937" lon="4.48366">
        <ele>131.34375</ele>
      </trkpt>
      <trkpt lat="44.02892" lon="4.48476">
        <ele>133.0625</ele>
      </trkpt>
      <trkpt lat="44.0289" lon="4.48471">
        <ele>140.970459</ele>
        <time>2012-08-07T07:28:05Z</time>
      </trkpt>
      <trkpt lat="44.02909" lon="4.48421">
        <ele>138.0865479</ele>
        <time>2012-08-07T07:28:46Z</time>
      </trkpt>
      <trkpt lat="44.0293" lon="4.48378">
        <ele>136.6446533</ele>
        <time>2012-08-07T07:29:05Z</time>
      </trkpt>
      <trkpt lat="44.02906" lon="4.48361">
        <ele>133.760498</ele>
        <time>2012-08-07T07:29:19Z</time>
      </trkpt>
      <trkpt lat="44.0287" lon="4.48403">
        <ele>129.9152832</ele>
        <time>2012-08-07T07:29:29Z</time>
      </trkpt>
      <trkpt lat="44.02844" lon="4.48454">
        <ele>127.5119629</ele>
        <time>2012-08-07T07:29:39Z</time>
      </trkpt>
      <trkpt lat="44.02821" lon="4.4851">
        <ele>127.0313721</ele>
        <time>2012-08-07T07:29:50Z</time>
      </trkpt>
      <trkpt lat="44.02795" lon="4.48568">
        <ele>126.5506592</ele>
        <time>2012-08-07T07:30:02Z</time>
      </trkpt>
      <trkpt lat="44.02766" lon="4.48623">
        <ele>124.1473389</ele>
        <time>2012-08-07T07:30:14Z</time>
      </trkpt>
      <trkpt lat="44.02743" lon="4.4868">
        <ele>123.1861572</ele>
        <time>2012-08-07T07:30:27Z</time>
      </trkpt>
      <trkpt lat="44.02717" lon="4.48736">
        <ele>120.7828369</ele>
        <time>2012-08-07T07:30:39Z</time>
      </trkpt>
      <trkpt lat="44.02694" lon="4.48792">
        <ele>119.3408203</ele>
        <time>2012-08-07T07:30:52Z</time>
      </trkpt>
      <trkpt lat="44.02685" lon="4.48858">
        <ele>120.302124</ele>
        <time>2012-08-07T07:31:06Z</time>
      </trkpt>
      <trkpt lat="44.02666" lon="4.48895">
        <ele>127.9925537</ele>
        <time>2012-08-07T07:31:27Z</time>
      </trkpt>
      <trkpt lat="44.0262" lon="4.48876">
        <ele>128.9541016</ele>
        <time>2012-08-07T07:31:41Z</time>
      </trkpt>
      <trkpt lat="44.02577" lon="4.48847">
        <ele>129.4346924</ele>
        <time>2012-08-07T07:31:55Z</time>
      </trkpt>
      <trkpt lat="44.02536" lon="4.48814">
        <ele>128.9541016</ele>
        <time>2012-08-07T07:32:10Z</time>
      </trkpt>
      <trkpt lat="44.02487" lon="4.48807">
        <ele>129.4346924</ele>
        <time>2012-08-07T07:32:23Z</time>
      </trkpt>
      <trkpt lat="44.0244" lon="4.48809">
        <ele>128.4733887</ele>
        <time>2012-08-07T07:32:36Z</time>
      </trkpt>
      <trkpt lat="44.02392" lon="4.48794">
        <ele>127.0313721</ele>
        <time>2012-08-07T07:32:49Z</time>
      </trkpt>
      <trkpt lat="44.02344" lon="4.48786">
        <ele>126.0699463</ele>
        <time>2012-08-07T07:33:00Z</time>
      </trkpt>
      <trkpt lat="44.02294" lon="4.48788">
        <ele>125.1087646</ele>
        <time>2012-08-07T07:33:11Z</time>
      </trkpt>
      <trkpt lat="44.02248" lon="4.48789">
        <ele>125.1087646</ele>
        <time>2012-08-07T07:33:22Z</time>
      </trkpt>
      <trkpt lat="44.02205" lon="4.48769">
        <ele>125.5893555</ele>
        <time>2012-08-07T07:33:33Z</time>
      </trkpt>
      <trkpt lat="44.02165" lon="4.4874">
        <ele>125.1087646</ele>
        <time>2012-08-07T07:33:47Z</time>
      </trkpt>
      <trkpt lat="44.0212" lon="4.48731">
        <ele>125.1087646</ele>
        <time>2012-08-07T07:33:59Z</time>
      </trkpt>
      <trkpt lat="44.02074" lon="4.48722">
        <ele>126.0699463</ele>
        <time>2012-08-07T07:34:11Z</time>
      </trkpt>
      <trkpt lat="44.02049" lon="4.48749">
        <ele>127.9925537</ele>
        <time>2012-08-07T07:34:35Z</time>
      </trkpt>
      <trkpt lat="44.02042" lon="4.48811">
        <ele>127.9925537</ele>
        <time>2012-08-07T07:34:45Z</time>
      </trkpt>
      <trkpt lat="44.02025" lon="4.48864">
        <ele>128.4733887</ele>
        <time>2012-08-07T07:34:58Z</time>
      </trkpt>
      <trkpt lat="44.0198" lon="4.4886">
        <ele>130.3959961</ele>
        <time>2012-08-07T07:35:14Z</time>
      </trkpt>
      <trkpt lat="44.01933" lon="4.48859">
        <ele>133.760498</ele>
        <time>2012-08-07T07:35:31Z</time>
      </trkpt>
      <trkpt lat="44.01889" lon="4.48849">
        <ele>135.2025146</ele>
        <time>2012-08-07T07:36:45Z</time>
      </trkpt>
      <trkpt lat="44.01845" lon="4.48839">
        <ele>138.0865479</ele>
        <time>2012-08-07T07:37:03Z</time>
      </trkpt>
      <trkpt lat="44.01799" lon="4.48832">
        <ele>139.5284424</ele>
        <time>2012-08-07T07:37:20Z</time>
      </trkpt>
      <trkpt lat="44.01754" lon="4.48822">
        <ele>140.970459</ele>
        <time>2012-08-07T07:37:36Z</time>
      </trkpt>
      <trkpt lat="44.01709" lon="4.4881">
        <ele>143.3736572</ele>
        <time>2012-08-07T07:37:53Z</time>
      </trkpt>
      <trkpt lat="44.01663" lon="4.48805">
        <ele>146.2578125</ele>
        <time>2012-08-07T07:38:11Z</time>
      </trkpt>
      <trkpt lat="44.01617" lon="4.48807">
        <ele>150.1030273</ele>
        <time>2012-08-07T07:38:31Z</time>
      </trkpt>
      <trkpt lat="44.01572" lon="4.48822">
        <ele>151.064209</ele>
        <time>2012-08-07T07:38:49Z</time>
      </trkpt>
      <trkpt lat="44.01527" lon="4.48828">
        <ele>157.7935791</ele>
        <time>2012-08-07T07:39:10Z</time>
      </trkpt>
      <trkpt lat="44.01481" lon="4.48821">
        <ele>162.6000977</ele>
        <time>2012-08-07T07:39:38Z</time>
      </trkpt>
      <trkpt lat="44.01435" lon="4.48823">
        <ele>171.2520752</ele>
        <time>2012-08-07T07:40:28Z</time>
      </trkpt>
      <trkpt lat="44.01414" lon="4.48881">
        <ele>177.5006104</ele>
        <time>2012-08-07T07:40:58Z</time>
      </trkpt>
      <trkpt lat="44.01394" lon="4.48935">
        <ele>182.3071289</ele>
        <time>2012-08-07T07:41:30Z</time>
      </trkpt>
      <trkpt lat="44.01366" lon="4.48982">
        <ele>189.036377</ele>
        <time>2012-08-07T07:42:01Z</time>
      </trkpt>
      <trkpt lat="44.01333" lon="4.4896">
        <ele>193.8430176</ele>
        <time>2012-08-07T07:42:32Z</time>
      </trkpt>
      <trkpt lat="44.01318" lon="4.48906">
        <ele>198.6495361</ele>
        <time>2012-08-07T07:43:02Z</time>
      </trkpt>
      <trkpt lat="44.01293" lon="4.48859">
        <ele>200.5722656</ele>
        <time>2012-08-07T07:43:30Z</time>
      </trkpt>
      <trkpt lat="44.01248" lon="4.48842">
        <ele>202.9754639</ele>
        <time>2012-08-07T07:43:51Z</time>
      </trkpt>
      <trkpt lat="44.01203" lon="4.48831">
        <ele>205.8594971</ele>
        <time>2012-08-07T07:44:13Z</time>
      </trkpt>
      <trkpt lat="44.01189" lon="4.48779">
        <ele>208.7434082</ele>
        <time>2012-08-07T07:44:32Z</time>
      </trkpt>
      <trkpt lat="44.01226" lon="4.48741">
        <ele>207.7821045</ele>
        <time>2012-08-07T07:44:49Z</time>
      </trkpt>
      <trkpt lat="44.01231" lon="4.48681">
        <ele>204.8980713</ele>
        <time>2012-08-07T07:45:00Z</time>
      </trkpt>
      <trkpt lat="44.01217" lon="4.48619">
        <ele>202.9754639</ele>
        <time>2012-08-07T07:45:10Z</time>
      </trkpt>
      <trkpt lat="44.01254" lon="4.48592">
        <ele>202.0142822</ele>
        <time>2012-08-07T07:45:21Z</time>
      </trkpt>
      <trkpt lat="44.01298" lon="4.48611">
        <ele>201.5335693</ele>
        <time>2012-08-07T07:45:36Z</time>
      </trkpt>
      <trkpt lat="44.01343" lon="4.48615">
        <ele>201.5335693</ele>
        <time>2012-08-07T07:45:48Z</time>
      </trkpt>
      <trkpt lat="44.01361" lon="4.48558">
        <ele>205.3787842</ele>
        <time>2012-08-07T07:46:03Z</time>
      </trkpt>
      <trkpt lat="44.01367" lon="4.48495">
        <ele>208.2628174</ele>
        <time>2012-08-07T07:46:17Z</time>
      </trkpt>
      <trkpt lat="44.01405" lon="4.48469">
        <ele>206.8206787</ele>
        <time>2012-08-07T07:46:28Z</time>
      </trkpt>
      <trkpt lat="44.01451" lon="4.48455">
        <ele>205.3787842</ele>
        <time>2012-08-07T07:46:40Z</time>
      </trkpt>
      <trkpt lat="44.01468" lon="4.48394">
        <ele>204.4174805</ele>
        <time>2012-08-07T07:46:51Z</time>
      </trkpt>
      <trkpt lat="44.01476" lon="4.48333">
        <ele>204.8980713</ele>
        <time>2012-08-07T07:47:04Z</time>
      </trkpt>
      <trkpt lat="44.01514" lon="4.48291">
        <ele>202.0142822</ele>
        <time>2012-08-07T07:47:17Z</time>
      </trkpt>
      <trkpt lat="44.01541" lon="4.48235">
        <ele>199.130127</ele>
        <time>2012-08-07T07:47:28Z</time>
      </trkpt>
      <trkpt lat="44.0152" lon="4.48183">
        <ele>200.5722656</ele>
        <time>2012-08-07T07:47:41Z</time>
      </trkpt>
      <trkpt lat="44.0152" lon="4.4817">
        <ele>201.5335693</ele>
        <time>2012-08-07T07:51:09Z</time>
      </trkpt>
      <trkpt lat="44.01489" lon="4.48135">
        <ele>201.0528564</ele>
        <time>2012-08-07T07:51:40Z</time>
      </trkpt>
      <trkpt lat="44.01444" lon="4.48111">
        <ele>202.0142822</ele>
        <time>2012-08-07T07:51:54Z</time>
      </trkpt>
      <trkpt lat="44.01412" lon="4.48063">
        <ele>202.494873</ele>
        <time>2012-08-07T07:52:07Z</time>
      </trkpt>
      <trkpt lat="44.01372" lon="4.48027">
        <ele>199.6108398</ele>
        <time>2012-08-07T07:52:16Z</time>
      </trkpt>
      <trkpt lat="44.01346" lon="4.47976">
        <ele>199.130127</ele>
        <time>2012-08-07T07:52:26Z</time>
      </trkpt>
      <trkpt lat="44.01355" lon="4.47915">
        <ele>199.6108398</ele>
        <time>2012-08-07T07:52:37Z</time>
      </trkpt>
      <trkpt lat="44.01346" lon="4.47858">
        <ele>200.5722656</ele>
        <time>2012-08-07T07:52:51Z</time>
      </trkpt>
      <trkpt lat="44.01302" lon="4.4785">
        <ele>202.9754639</ele>
        <time>2012-08-07T07:53:07Z</time>
      </trkpt>
      <trkpt lat="44.01295" lon="4.47871">
        <ele>203.9368896</ele>
        <time>2012-08-07T07:53:22Z</time>
      </trkpt>
      <trkpt lat="44.01314" lon="4.47931">
        <ele>202.494873</ele>
        <time>2012-08-07T07:53:36Z</time>
      </trkpt>
      <trkpt lat="44.01319" lon="4.47993">
        <ele>202.9754639</ele>
        <time>2012-08-07T07:53:50Z</time>
      </trkpt>
      <trkpt lat="44.01327" lon="4.48051">
        <ele>204.4174805</ele>
        <time>2012-08-07T07:54:06Z</time>
      </trkpt>
      <trkpt lat="44.01362" lon="4.48099">
        <ele>204.4174805</ele>
        <time>2012-08-07T07:54:22Z</time>
      </trkpt>
      <trkpt lat="44.0136" lon="4.48157">
        <ele>205.8594971</ele>
        <time>2012-08-07T07:54:39Z</time>
      </trkpt>
      <trkpt lat="44.01359" lon="4.48222">
        <ele>207.3013916</ele>
        <time>2012-08-07T07:54:53Z</time>
      </trkpt>
      <trkpt lat="44.01352" lon="4.48284">
        <ele>205.3787842</ele>
        <time>2012-08-07T07:55:05Z</time>
      </trkpt>
      <trkpt lat="44.01335" lon="4.48293">
        <ele>205.3787842</ele>
        <time>2012-08-07T07:55:24Z</time>
      </trkpt>
      <trkpt lat="44.01289" lon="4.48298">
        <ele>201.5335693</ele>
        <time>2012-08-07T07:55:36Z</time>
      </trkpt>
      <trkpt lat="44.01243" lon="4.48303">
        <ele>199.6108398</ele>
        <time>2012-08-07T07:55:47Z</time>
      </trkpt>
      <trkpt lat="44.01199" lon="4.48282">
        <ele>199.6108398</ele>
        <time>2012-08-07T07:55:58Z</time>
      </trkpt>
      <trkpt lat="44.01153" lon="4.48267">
        <ele>198.1689453</ele>
        <time>2012-08-07T07:56:11Z</time>
      </trkpt>
      <trkpt lat="44.01129" lon="4.48221">
        <ele>198.1689453</ele>
        <time>2012-08-07T07:56:24Z</time>
      </trkpt>
      <trkpt lat="44.01098" lon="4.48171">
        <ele>198.1689453</ele>
        <time>2012-08-07T07:56:37Z</time>
      </trkpt>
      <trkpt lat="44.0106" lon="4.48127">
        <ele>198.6495361</ele>
        <time>2012-08-07T07:56:50Z</time>
      </trkpt>
      <trkpt lat="44.01026" lon="4.48081">
        <ele>199.130127</ele>
        <time>2012-08-07T07:57:03Z</time>
      </trkpt>
      <trkpt lat="44.01" lon="4.48029">
        <ele>199.130127</ele>
        <time>2012-08-07T07:57:17Z</time>
      </trkpt>
      <trkpt lat="44.00973" lon="4.47973">
        <ele>199.130127</ele>
        <time>2012-08-07T07:57:30Z</time>
      </trkpt>
      <trkpt lat="44.00962" lon="4.4791">
        <ele>199.6108398</ele>
        <time>2012-08-07T07:57:43Z</time>
      </trkpt>
      <trkpt lat="44.00961" lon="4.47845">
        <ele>201.0528564</ele>
        <time>2012-08-07T07:57:56Z</time>
      </trkpt>
      <trkpt lat="44.00956" lon="4.47776">
        <ele>202.0142822</ele>
        <time>2012-08-07T07:58:09Z</time>
      </trkpt>
      <trkpt lat="44.00935" lon="4.47715">
        <ele>202.494873</ele>
        <time>2012-08-07T07:58:22Z</time>
      </trkpt>
      <trkpt lat="44.00918" lon="4.47652">
        <ele>204.4174805</ele>
        <time>2012-08-07T07:58:35Z</time>
      </trkpt>
      <trkpt lat="44.00886" lon="4.47601">
        <ele>204.4174805</ele>
        <time>2012-08-07T07:58:48Z</time>
      </trkpt>
      <trkpt lat="44.00854" lon="4.47569">
        <ele>204.4174805</ele>
        <time>2012-08-07T07:59:02Z</time>
      </trkpt>
      <trkpt lat="44.00811" lon="4.47583">
        <ele>202.9754639</ele>
        <time>2012-08-07T07:59:14Z</time>
      </trkpt>
      <trkpt lat="44.00769" lon="4.47553">
        <ele>204.4174805</ele>
        <time>2012-08-07T07:59:28Z</time>
      </trkpt>
      <trkpt lat="44.00754" lon="4.47492">
        <ele>205.3787842</ele>
        <time>2012-08-07T07:59:42Z</time>
      </trkpt>
      <trkpt lat="44.00746" lon="4.47427">
        <ele>208.2628174</ele>
        <time>2012-08-07T07:59:57Z</time>
      </trkpt>
      <trkpt lat="44.00735" lon="4.47361">
        <ele>207.7821045</ele>
        <time>2012-08-07T08:00:10Z</time>
      </trkpt>
      <trkpt lat="44.00719" lon="4.47306">
        <ele>208.2628174</ele>
        <time>2012-08-07T08:00:23Z</time>
      </trkpt>
      <trkpt lat="44.0067" lon="4.47314">
        <ele>209.2241211</ele>
        <time>2012-08-07T08:00:36Z</time>
      </trkpt>
      <trkpt lat="44.00624" lon="4.47313">
        <ele>210.6660156</ele>
        <time>2012-08-07T08:00:50Z</time>
      </trkpt>
      <trkpt lat="44.00578" lon="4.47298">
        <ele>210.6660156</ele>
        <time>2012-08-07T08:01:04Z</time>
      </trkpt>
      <trkpt lat="44.00534" lon="4.47284">
        <ele>211.1467285</ele>
        <time>2012-08-07T08:01:17Z</time>
      </trkpt>
      <trkpt lat="44.00489" lon="4.47271">
        <ele>211.6274414</ele>
        <time>2012-08-07T08:01:34Z</time>
      </trkpt>
      <trkpt lat="44.00463" lon="4.47299">
        <ele>210.6660156</ele>
        <time>2012-08-07T08:02:43Z</time>
      </trkpt>
      <trkpt lat="44.00419" lon="4.47319">
        <ele>209.2241211</ele>
        <time>2012-08-07T08:03:00Z</time>
      </trkpt>
      <trkpt lat="44.00393" lon="4.47347">
        <ele>208.7434082</ele>
        <time>2012-08-07T08:03:16Z</time>
      </trkpt>
      <trkpt lat="44.00378" lon="4.47357">
        <ele>208.2628174</ele>
        <time>2012-08-07T08:07:32Z</time>
      </trkpt>
      <trkpt lat="44.00333" lon="4.47361">
        <ele>208.2628174</ele>
        <time>2012-08-07T08:07:46Z</time>
      </trkpt>
      <trkpt lat="44.00305" lon="4.47391">
        <ele>207.7821045</ele>
        <time>2012-08-07T08:08:03Z</time>
      </trkpt>
      <trkpt lat="44.0028" lon="4.4745">
        <ele>206.8206787</ele>
        <time>2012-08-07T08:08:15Z</time>
      </trkpt>
      <trkpt lat="44.00257" lon="4.47509">
        <ele>205.8594971</ele>
        <time>2012-08-07T08:08:25Z</time>
      </trkpt>
      <trkpt lat="44.00231" lon="4.4757">
        <ele>205.3787842</ele>
        <time>2012-08-07T08:08:35Z</time>
      </trkpt>
      <trkpt lat="44.00201" lon="4.47617">
        <ele>203.9368896</ele>
        <time>2012-08-07T08:08:43Z</time>
      </trkpt>
      <trkpt lat="44.0016" lon="4.47641">
        <ele>202.494873</ele>
        <time>2012-08-07T08:08:51Z</time>
      </trkpt>
      <trkpt lat="44.00119" lon="4.47663">
        <ele>201.5335693</ele>
        <time>2012-08-07T08:09:07Z</time>
      </trkpt>
      <trkpt lat="44.00097" lon="4.4772">
        <ele>200.0916748</ele>
        <time>2012-08-07T08:09:21Z</time>
      </trkpt>
      <trkpt lat="44.00072" lon="4.47772">
        <ele>198.6495361</ele>
        <time>2012-08-07T08:09:36Z</time>
      </trkpt>
      <trkpt lat="44.00041" lon="4.47823">
        <ele>199.130127</ele>
        <time>2012-08-07T08:09:51Z</time>
      </trkpt>
      <trkpt lat="44.00007" lon="4.47866">
        <ele>200.5722656</ele>
        <time>2012-08-07T08:10:05Z</time>
      </trkpt>
      <trkpt lat="43.99977" lon="4.47915">
        <ele>201.5335693</ele>
        <time>2012-08-07T08:10:19Z</time>
      </trkpt>
      <trkpt lat="43.99956" lon="4.47972">
        <ele>202.0142822</ele>
        <time>2012-08-07T08:10:33Z</time>
      </trkpt>
      <trkpt lat="43.99919" lon="4.48011">
        <ele>202.9754639</ele>
        <time>2012-08-07T08:10:47Z</time>
      </trkpt>
      <trkpt lat="43.99877" lon="4.48027">
        <ele>203.9368896</ele>
        <time>2012-08-07T08:10:59Z</time>
      </trkpt>
      <trkpt lat="43.99832" lon="4.48041">
        <ele>203.4561768</ele>
        <time>2012-08-07T08:11:10Z</time>
      </trkpt>
      <trkpt lat="43.99785" lon="4.48051">
        <ele>203.4561768</ele>
        <time>2012-08-07T08:11:20Z</time>
      </trkpt>
      <trkpt lat="43.9974" lon="4.4806">
        <ele>202.494873</ele>
        <time>2012-08-07T08:11:29Z</time>
      </trkpt>
      <trkpt lat="43.99695" lon="4.4807">
        <ele>200.0916748</ele>
        <time>2012-08-07T08:11:40Z</time>
      </trkpt>
      <trkpt lat="43.99649" lon="4.48081">
        <ele>198.6495361</ele>
        <time>2012-08-07T08:11:53Z</time>
      </trkpt>
      <trkpt lat="43.99626" lon="4.48131">
        <ele>199.130127</ele>
        <time>2012-08-07T08:12:07Z</time>
      </trkpt>
      <trkpt lat="43.99616" lon="4.48193">
        <ele>200.0916748</ele>
        <time>2012-08-07T08:12:20Z</time>
      </trkpt>
      <trkpt lat="43.99591" lon="4.4825">
        <ele>199.6108398</ele>
        <time>2012-08-07T08:12:32Z</time>
      </trkpt>
      <trkpt lat="43.99576" lon="4.48309">
        <ele>198.1689453</ele>
        <time>2012-08-07T08:12:42Z</time>
      </trkpt>
      <trkpt lat="43.99556" lon="4.48363">
        <ele>196.2463379</ele>
        <time>2012-08-07T08:12:54Z</time>
      </trkpt>
      <trkpt lat="43.99564" lon="4.48424">
        <ele>195.765625</ele>
        <time>2012-08-07T08:13:06Z</time>
      </trkpt>
      <trkpt lat="43.99577" lon="4.48489">
        <ele>194.3237305</ele>
        <time>2012-08-07T08:13:16Z</time>
      </trkpt>
      <trkpt lat="43.99584" lon="4.48555">
        <ele>191.4395752</ele>
        <time>2012-08-07T08:13:25Z</time>
      </trkpt>
      <trkpt lat="43.9959" lon="4.48619">
        <ele>188.0750732</ele>
        <time>2012-08-07T08:13:35Z</time>
      </trkpt>
      <trkpt lat="43.99604" lon="4.48684">
        <ele>188.5557861</ele>
        <time>2012-08-07T08:13:46Z</time>
      </trkpt>
      <trkpt lat="43.99629" lon="4.48738">
        <ele>189.036377</ele>
        <time>2012-08-07T08:13:58Z</time>
      </trkpt>
      <trkpt lat="43.99654" lon="4.48792">
        <ele>187.1137695</ele>
        <time>2012-08-07T08:14:09Z</time>
      </trkpt>
      <trkpt lat="43.9968" lon="4.48847">
        <ele>183.7490234</ele>
        <time>2012-08-07T08:14:19Z</time>
      </trkpt>
      <trkpt lat="43.99705" lon="4.48902">
        <ele>187.1137695</ele>
        <time>2012-08-07T08:14:35Z</time>
      </trkpt>
      <trkpt lat="43.9973" lon="4.48956">
        <ele>190.9589844</ele>
        <time>2012-08-07T08:14:53Z</time>
      </trkpt>
      <trkpt lat="43.99755" lon="4.49012">
        <ele>193.3623047</ele>
        <time>2012-08-07T08:15:10Z</time>
      </trkpt>
      <trkpt lat="43.99779" lon="4.4907">
        <ele>194.3237305</ele>
        <time>2012-08-07T08:15:27Z</time>
      </trkpt>
      <trkpt lat="43.99802" lon="4.49128">
        <ele>194.8043213</ele>
        <time>2012-08-07T08:15:41Z</time>
      </trkpt>
      <trkpt lat="43.99827" lon="4.49171">
        <ele>191.9202881</ele>
        <time>2012-08-07T08:15:56Z</time>
      </trkpt>
      <trkpt lat="43.99874" lon="4.49191">
        <ele>187.5943604</ele>
        <time>2012-08-07T08:16:07Z</time>
      </trkpt>
      <trkpt lat="43.99918" lon="4.49208">
        <ele>183.2684326</ele>
        <time>2012-08-07T08:16:17Z</time>
      </trkpt>
      <trkpt lat="43.99962" lon="4.49211">
        <ele>180.3845215</ele>
        <time>2012-08-07T08:16:26Z</time>
      </trkpt>
      <trkpt lat="44.0001" lon="4.49205">
        <ele>178.942627</ele>
        <time>2012-08-07T08:16:38Z</time>
      </trkpt>
      <trkpt lat="44.00054" lon="4.4922">
        <ele>179.9038086</ele>
        <time>2012-08-07T08:16:51Z</time>
      </trkpt>
      <trkpt lat="44.00087" lon="4.49177">
        <ele>184.2298584</ele>
        <time>2012-08-07T08:17:08Z</time>
      </trkpt>
      <trkpt lat="44.0013" lon="4.49149">
        <ele>186.6331787</ele>
        <time>2012-08-07T08:17:25Z</time>
      </trkpt>
      <trkpt lat="44.00176" lon="4.49165">
        <ele>189.5169678</ele>
        <time>2012-08-07T08:17:42Z</time>
      </trkpt>
      <trkpt lat="44.00221" lon="4.49182">
        <ele>191.4395752</ele>
        <time>2012-08-07T08:17:57Z</time>
      </trkpt>
      <trkpt lat="44.00264" lon="4.49196">
        <ele>192.401123</ele>
        <time>2012-08-07T08:18:12Z</time>
      </trkpt>
      <trkpt lat="44.00312" lon="4.49203">
        <ele>193.3623047</ele>
        <time>2012-08-07T08:18:26Z</time>
      </trkpt>
      <trkpt lat="44.00356" lon="4.49187">
        <ele>194.3237305</ele>
        <time>2012-08-07T08:18:42Z</time>
      </trkpt>
      <trkpt lat="44.00392" lon="4.49153">
        <ele>194.3237305</ele>
        <time>2012-08-07T08:18:56Z</time>
      </trkpt>
      <trkpt lat="44.00439" lon="4.4914">
        <ele>195.765625</ele>
        <time>2012-08-07T08:19:11Z</time>
      </trkpt>
      <trkpt lat="44.00487" lon="4.49141">
        <ele>195.765625</ele>
        <time>2012-08-07T08:19:25Z</time>
      </trkpt>
      <trkpt lat="44.00535" lon="4.49148">
        <ele>196.7269287</ele>
        <time>2012-08-07T08:19:39Z</time>
      </trkpt>
      <trkpt lat="44.00579" lon="4.49153">
        <ele>198.1689453</ele>
        <time>2012-08-07T08:19:54Z</time>
      </trkpt>
      <trkpt lat="44.00627" lon="4.49141">
        <ele>199.6108398</ele>
        <time>2012-08-07T08:20:09Z</time>
      </trkpt>
      <trkpt lat="44.00669" lon="4.4911">
        <ele>201.0528564</ele>
        <time>2012-08-07T08:20:25Z</time>
      </trkpt>
      <trkpt lat="44.00715" lon="4.49094">
        <ele>201.5335693</ele>
        <time>2012-08-07T08:20:40Z</time>
      </trkpt>
      <trkpt lat="44.00761" lon="4.4908">
        <ele>202.9754639</ele>
        <time>2012-08-07T08:20:55Z</time>
      </trkpt>
      <trkpt lat="44.00806" lon="4.49063">
        <ele>204.8980713</ele>
        <time>2012-08-07T08:21:09Z</time>
      </trkpt>
      <trkpt lat="44.00852" lon="4.49052">
        <ele>206.3400879</ele>
        <time>2012-08-07T08:21:23Z</time>
      </trkpt>
      <trkpt lat="44.00898" lon="4.49048">
        <ele>206.3400879</ele>
        <time>2012-08-07T08:21:37Z</time>
      </trkpt>
      <trkpt lat="44.00945" lon="4.49053">
        <ele>206.3400879</ele>
        <time>2012-08-07T08:21:51Z</time>
      </trkpt>
      <trkpt lat="44.0099" lon="4.49047">
        <ele>205.8594971</ele>
        <time>2012-08-07T08:22:03Z</time>
      </trkpt>
      <trkpt lat="44.01036" lon="4.49042">
        <ele>205.3787842</ele>
        <time>2012-08-07T08:22:16Z</time>
      </trkpt>
      <trkpt lat="44.01054" lon="4.49084">
        <ele>206.8206787</ele>
        <time>2012-08-07T08:22:40Z</time>
      </trkpt>
      <trkpt lat="44.01051" lon="4.49146">
        <ele>206.8206787</ele>
        <time>2012-08-07T08:22:54Z</time>
      </trkpt>
      <trkpt lat="44.01053" lon="4.4921">
        <ele>205.8594971</ele>
        <time>2012-08-07T08:23:06Z</time>
      </trkpt>
      <trkpt lat="44.01039" lon="4.49271">
        <ele>206.3400879</ele>
        <time>2012-08-07T08:23:21Z</time>
      </trkpt>
      <trkpt lat="44.01026" lon="4.49332">
        <ele>206.8206787</ele>
        <time>2012-08-07T08:23:35Z</time>
      </trkpt>
      <trkpt lat="44.00998" lon="4.49386">
        <ele>206.3400879</ele>
        <time>2012-08-07T08:23:47Z</time>
      </trkpt>
      <trkpt lat="44.00988" lon="4.49452">
        <ele>203.4561768</ele>
        <time>2012-08-07T08:23:57Z</time>
      </trkpt>
      <trkpt lat="44.00973" lon="4.49512">
        <ele>200.5722656</ele>
        <time>2012-08-07T08:25:23Z</time>
      </trkpt>
      <trkpt lat="44.00986" lon="4.49564">
        <ele>200.5722656</ele>
        <time>2012-08-07T08:29:50Z</time>
      </trkpt>
      <trkpt lat="44.01006" lon="4.49564">
        <ele>200.0916748</ele>
        <time>2012-08-07T08:30:27Z</time>
      </trkpt>
      <trkpt lat="44.00977" lon="4.49593">
        <ele>201.0528564</ele>
        <time>2012-08-07T08:30:45Z</time>
      </trkpt>
      <trkpt lat="44.00975" lon="4.49657">
        <ele>202.494873</ele>
        <time>2012-08-07T08:30:59Z</time>
      </trkpt>
      <trkpt lat="44.00971" lon="4.4972">
        <ele>202.9754639</ele>
        <time>2012-08-07T08:31:12Z</time>
      </trkpt>
      <trkpt lat="44.00977" lon="4.49782">
        <ele>202.494873</ele>
        <time>2012-08-07T08:31:23Z</time>
      </trkpt>
      <trkpt lat="44.00988" lon="4.49845">
        <ele>202.0142822</ele>
        <time>2012-08-07T08:31:33Z</time>
      </trkpt>
      <trkpt lat="44.01021" lon="4.49892">
        <ele>200.5722656</ele>
        <time>2012-08-07T08:31:43Z</time>
      </trkpt>
      <trkpt lat="44.01058" lon="4.49937">
        <ele>198.6495361</ele>
        <time>2012-08-07T08:31:53Z</time>
      </trkpt>
      <trkpt lat="44.01072" lon="4.49999">
        <ele>197.6882324</ele>
        <time>2012-08-07T08:32:04Z</time>
      </trkpt>
      <trkpt lat="44.01069" lon="4.5006">
        <ele>198.6495361</ele>
        <time>2012-08-07T08:32:17Z</time>
      </trkpt>
      <trkpt lat="44.01103" lon="4.50099">
        <ele>199.130127</ele>
        <time>2012-08-07T08:32:36Z</time>
      </trkpt>
      <trkpt lat="44.01137" lon="4.50143">
        <ele>199.6108398</ele>
        <time>2012-08-07T08:32:51Z</time>
      </trkpt>
      <trkpt lat="44.01171" lon="4.5019">
        <ele>199.6108398</ele>
        <time>2012-08-07T08:33:05Z</time>
      </trkpt>
      <trkpt lat="44.01207" lon="4.50233">
        <ele>197.2075195</ele>
        <time>2012-08-07T08:33:17Z</time>
      </trkpt>
      <trkpt lat="44.01248" lon="4.50253">
        <ele>193.8430176</ele>
        <time>2012-08-07T08:33:33Z</time>
      </trkpt>
      <trkpt lat="44.01294" lon="4.50251">
        <ele>190.4783936</ele>
        <time>2012-08-07T08:33:45Z</time>
      </trkpt>
      <trkpt lat="44.01338" lon="4.50262">
        <ele>187.1137695</ele>
        <time>2012-08-07T08:33:57Z</time>
      </trkpt>
      <trkpt lat="44.01385" lon="4.50278">
        <ele>180.8652344</ele>
        <time>2012-08-07T08:34:10Z</time>
      </trkpt>
      <trkpt lat="44.01425" lon="4.50263">
        <ele>174.6165771</ele>
        <time>2012-08-07T08:34:25Z</time>
      </trkpt>
      <trkpt lat="44.01458" lon="4.50298">
        <ele>167.4067383</ele>
        <time>2012-08-07T08:34:40Z</time>
      </trkpt>
      <trkpt lat="44.01494" lon="4.50342">
        <ele>166.4453125</ele>
        <time>2012-08-07T08:34:52Z</time>
      </trkpt>
      <trkpt lat="44.01526" lon="4.50392">
        <ele>167.4067383</ele>
        <time>2012-08-07T08:35:06Z</time>
      </trkpt>
      <trkpt lat="44.01559" lon="4.50439">
        <ele>167.4067383</ele>
        <time>2012-08-07T08:35:20Z</time>
      </trkpt>
      <trkpt lat="44.01594" lon="4.50485">
        <ele>168.368042</ele>
        <time>2012-08-07T08:35:33Z</time>
      </trkpt>
      <trkpt lat="44.01627" lon="4.50529">
        <ele>170.2906494</ele>
        <time>2012-08-07T08:35:48Z</time>
      </trkpt>
      <trkpt lat="44.01662" lon="4.50572">
        <ele>170.2906494</ele>
        <time>2012-08-07T08:36:01Z</time>
      </trkpt>
      <trkpt lat="44.01695" lon="4.50619">
        <ele>169.8100586</ele>
        <time>2012-08-07T08:36:13Z</time>
      </trkpt>
      <trkpt lat="44.01737" lon="4.50649">
        <ele>170.7713623</ele>
        <time>2012-08-07T08:36:28Z</time>
      </trkpt>
      <trkpt lat="44.01782" lon="4.50664">
        <ele>170.2906494</ele>
        <time>2012-08-07T08:36:40Z</time>
      </trkpt>
      <trkpt lat="44.01827" lon="4.50671">
        <ele>170.2906494</ele>
        <time>2012-08-07T08:36:51Z</time>
      </trkpt>
      <trkpt lat="44.01867" lon="4.50644">
        <ele>168.8487549</ele>
        <time>2012-08-07T08:37:00Z</time>
      </trkpt>
      <trkpt lat="44.0191" lon="4.50628">
        <ele>166.4453125</ele>
        <time>2012-08-07T08:37:10Z</time>
      </trkpt>
      <trkpt lat="44.01953" lon="4.50645">
        <ele>166.9260254</ele>
        <time>2012-08-07T08:37:23Z</time>
      </trkpt>
      <trkpt lat="44.01955" lon="4.50688">
        <ele>169.3294678</ele>
        <time>2012-08-07T08:37:41Z</time>
      </trkpt>
      <trkpt lat="44.01916" lon="4.50719">
        <ele>175.5778809</ele>
        <time>2012-08-07T08:38:00Z</time>
      </trkpt>
      <trkpt lat="44.01875" lon="4.5074">
        <ele>176.5393066</ele>
        <time>2012-08-07T08:38:20Z</time>
      </trkpt>
      <trkpt lat="44.01851" lon="4.50795">
        <ele>178.942627</ele>
        <time>2012-08-07T08:38:40Z</time>
      </trkpt>
      <trkpt lat="44.01817" lon="4.50841">
        <ele>183.2684326</ele>
        <time>2012-08-07T08:39:00Z</time>
      </trkpt>
      <trkpt lat="44.01774" lon="4.5083">
        <ele>181.826416</ele>
        <time>2012-08-07T08:39:15Z</time>
      </trkpt>
      <trkpt lat="44.01733" lon="4.5085">
        <ele>185.1911621</ele>
        <time>2012-08-07T08:39:34Z</time>
      </trkpt>
      <trkpt lat="44.01688" lon="4.50864">
        <ele>187.1137695</ele>
        <time>2012-08-07T08:39:53Z</time>
      </trkpt>
      <trkpt lat="44.01645" lon="4.50856">
        <ele>189.036377</ele>
        <time>2012-08-07T08:40:14Z</time>
      </trkpt>
      <trkpt lat="44.01605" lon="4.50867">
        <ele>190.9589844</ele>
        <time>2012-08-07T08:40:34Z</time>
      </trkpt>
      <trkpt lat="44.0157" lon="4.50835">
        <ele>189.036377</ele>
        <time>2012-08-07T08:40:56Z</time>
      </trkpt>
      <trkpt lat="44.01531" lon="4.5082">
        <ele>186.6331787</ele>
        <time>2012-08-07T08:41:15Z</time>
      </trkpt>
      <trkpt lat="44.01488" lon="4.50845">
        <ele>191.9202881</ele>
        <time>2012-08-07T08:41:34Z</time>
      </trkpt>
      <trkpt lat="44.01454" lon="4.50888">
        <ele>195.2849121</ele>
        <time>2012-08-07T08:41:52Z</time>
      </trkpt>
      <trkpt lat="44.01413" lon="4.50919">
        <ele>196.2463379</ele>
        <time>2012-08-07T08:42:08Z</time>
      </trkpt>
      <trkpt lat="44.01432" lon="4.50959">
        <ele>197.6882324</ele>
        <time>2012-08-07T08:42:26Z</time>
      </trkpt>
      <trkpt lat="44.01473" lon="4.50995">
        <ele>199.130127</ele>
        <time>2012-08-07T08:42:39Z</time>
      </trkpt>
      <trkpt lat="44.01513" lon="4.51032">
        <ele>199.130127</ele>
        <time>2012-08-07T08:42:51Z</time>
      </trkpt>
      <trkpt lat="44.01556" lon="4.51064">
        <ele>200.0916748</ele>
        <time>2012-08-07T08:43:03Z</time>
      </trkpt>
      <trkpt lat="44.01601" lon="4.51083">
        <ele>199.6108398</ele>
        <time>2012-08-07T08:43:14Z</time>
      </trkpt>
      <trkpt lat="44.01647" lon="4.51098">
        <ele>199.6108398</ele>
        <time>2012-08-07T08:43:25Z</time>
      </trkpt>
      <trkpt lat="44.01693" lon="4.51113">
        <ele>200.0916748</ele>
        <time>2012-08-07T08:43:36Z</time>
      </trkpt>
      <trkpt lat="44.0173" lon="4.5115">
        <ele>200.5722656</ele>
        <time>2012-08-07T08:43:47Z</time>
      </trkpt>
      <trkpt lat="44.01768" lon="4.51189">
        <ele>200.0916748</ele>
        <time>2012-08-07T08:43:58Z</time>
      </trkpt>
      <trkpt lat="44.01812" lon="4.51212">
        <ele>199.130127</ele>
        <time>2012-08-07T08:44:09Z</time>
      </trkpt>
      <trkpt lat="44.0186" lon="4.51219">
        <ele>198.6495361</ele>
        <time>2012-08-07T08:44:20Z</time>
      </trkpt>
      <trkpt lat="44.01908" lon="4.51213">
        <ele>198.1689453</ele>
        <time>2012-08-07T08:44:31Z</time>
      </trkpt>
      <trkpt lat="44.01954" lon="4.51216">
        <ele>198.1689453</ele>
        <time>2012-08-07T08:44:42Z</time>
      </trkpt>
      <trkpt lat="44.01994" lon="4.51189">
        <ele>197.6882324</ele>
        <time>2012-08-07T08:44:55Z</time>
      </trkpt>
      <trkpt lat="44.0204" lon="4.5119">
        <ele>196.2463379</ele>
        <time>2012-08-07T08:45:06Z</time>
      </trkpt>
      <trkpt lat="44.02084" lon="4.51207">
        <ele>195.765625</ele>
        <time>2012-08-07T08:45:16Z</time>
      </trkpt>
      <trkpt lat="44.02129" lon="4.51221">
        <ele>196.2463379</ele>
        <time>2012-08-07T08:45:28Z</time>
      </trkpt>
      <trkpt lat="44.02172" lon="4.51226">
        <ele>198.1689453</ele>
        <time>2012-08-07T08:45:46Z</time>
      </trkpt>
      <trkpt lat="44.02214" lon="4.5125">
        <ele>198.6495361</ele>
        <time>2012-08-07T08:45:59Z</time>
      </trkpt>
      <trkpt lat="44.02242" lon="4.51303">
        <ele>198.1689453</ele>
        <time>2012-08-07T08:46:11Z</time>
      </trkpt>
      <trkpt lat="44.02269" lon="4.51357">
        <ele>195.765625</ele>
        <time>2012-08-07T08:46:23Z</time>
      </trkpt>
      <trkpt lat="44.02292" lon="4.51412">
        <ele>193.3623047</ele>
        <time>2012-08-07T08:46:35Z</time>
      </trkpt>
      <trkpt lat="44.02319" lon="4.51467">
        <ele>195.2849121</ele>
        <time>2012-08-07T08:46:50Z</time>
      </trkpt>
      <trkpt lat="44.02342" lon="4.51526">
        <ele>194.8043213</ele>
        <time>2012-08-07T08:47:04Z</time>
      </trkpt>
      <trkpt lat="44.02368" lon="4.51586">
        <ele>194.8043213</ele>
        <time>2012-08-07T08:47:16Z</time>
      </trkpt>
      <trkpt lat="44.02396" lon="4.51642">
        <ele>194.3237305</ele>
        <time>2012-08-07T08:47:28Z</time>
      </trkpt>
      <trkpt lat="44.0242" lon="4.51701">
        <ele>193.3623047</ele>
        <time>2012-08-07T08:47:41Z</time>
      </trkpt>
      <trkpt lat="44.02447" lon="4.5176">
        <ele>194.3237305</ele>
        <time>2012-08-07T08:47:52Z</time>
      </trkpt>
      <trkpt lat="44.02473" lon="4.51819">
        <ele>194.3237305</ele>
        <time>2012-08-07T08:48:01Z</time>
      </trkpt>
      <trkpt lat="44.02499" lon="4.51876">
        <ele>192.8817139</ele>
        <time>2012-08-07T08:48:09Z</time>
      </trkpt>
      <trkpt lat="44.02524" lon="4.51931">
        <ele>191.4395752</ele>
        <time>2012-08-07T08:48:16Z</time>
      </trkpt>
      <trkpt lat="44.0255" lon="4.51989">
        <ele>191.9202881</ele>
        <time>2012-08-07T08:48:24Z</time>
      </trkpt>
      <trkpt lat="44.02574" lon="4.52044">
        <ele>193.3623047</ele>
        <time>2012-08-07T08:48:31Z</time>
      </trkpt>
      <trkpt lat="44.02601" lon="4.52107">
        <ele>194.3237305</ele>
        <time>2012-08-07T08:48:39Z</time>
      </trkpt>
      <trkpt lat="44.02626" lon="4.52162">
        <ele>195.2849121</ele>
        <time>2012-08-07T08:48:46Z</time>
      </trkpt>
      <trkpt lat="44.02649" lon="4.52218">
        <ele>197.2075195</ele>
        <time>2012-08-07T08:48:53Z</time>
      </trkpt>
      <trkpt lat="44.02675" lon="4.52274">
        <ele>198.6495361</ele>
        <time>2012-08-07T08:49:00Z</time>
      </trkpt>
      <trkpt lat="44.02699" lon="4.52329">
        <ele>198.6495361</ele>
        <time>2012-08-07T08:49:07Z</time>
      </trkpt>
      <trkpt lat="44.02726" lon="4.5239">
        <ele>198.1689453</ele>
        <time>2012-08-07T08:49:16Z</time>
      </trkpt>
      <trkpt lat="44.02751" lon="4.52444">
        <ele>197.6882324</ele>
        <time>2012-08-07T08:49:27Z</time>
      </trkpt>
      <trkpt lat="44.02775" lon="4.52499">
        <ele>196.2463379</ele>
        <time>2012-08-07T08:50:10Z</time>
      </trkpt>
      <trkpt lat="44.02808" lon="4.5253">
        <ele>197.2075195</ele>
        <time>2012-08-07T08:53:44Z</time>
      </trkpt>
      <trkpt lat="44.02856" lon="4.52532">
        <ele>196.7269287</ele>
        <time>2012-08-07T08:54:00Z</time>
      </trkpt>
      <trkpt lat="44.02903" lon="4.52554">
        <ele>193.3623047</ele>
        <time>2012-08-07T08:54:13Z</time>
      </trkpt>
      <trkpt lat="44.02947" lon="4.52566">
        <ele>192.401123</ele>
        <time>2012-08-07T08:54:23Z</time>
      </trkpt>
      <trkpt lat="44.02993" lon="4.52577">
        <ele>193.3623047</ele>
        <time>2012-08-07T08:54:36Z</time>
      </trkpt>
      <trkpt lat="44.03038" lon="4.52587">
        <ele>195.2849121</ele>
        <time>2012-08-07T08:54:50Z</time>
      </trkpt>
      <trkpt lat="44.03086" lon="4.52594">
        <ele>196.2463379</ele>
        <time>2012-08-07T08:55:05Z</time>
      </trkpt>
      <trkpt lat="44.03132" lon="4.52604">
        <ele>197.2075195</ele>
        <time>2012-08-07T08:55:21Z</time>
      </trkpt>
      <trkpt lat="44.03174" lon="4.52621">
        <ele>194.3237305</ele>
        <time>2012-08-07T08:55:44Z</time>
      </trkpt>
      <trkpt lat="44.03218" lon="4.52642">
        <ele>192.8817139</ele>
        <time>2012-08-07T08:55:59Z</time>
      </trkpt>
      <trkpt lat="44.03263" lon="4.52657">
        <ele>191.9202881</ele>
        <time>2012-08-07T08:56:13Z</time>
      </trkpt>
      <trkpt lat="44.03308" lon="4.5267">
        <ele>192.8817139</ele>
        <time>2012-08-07T08:56:28Z</time>
      </trkpt>
      <trkpt lat="44.03356" lon="4.5267">
        <ele>193.8430176</ele>
        <time>2012-08-07T08:56:43Z</time>
      </trkpt>
      <trkpt lat="44.03404" lon="4.52676">
        <ele>192.8817139</ele>
        <time>2012-08-07T08:56:58Z</time>
      </trkpt>
      <trkpt lat="44.03451" lon="4.52689">
        <ele>193.8430176</ele>
        <time>2012-08-07T08:57:13Z</time>
      </trkpt>
      <trkpt lat="44.03495" lon="4.52708">
        <ele>195.765625</ele>
        <time>2012-08-07T08:57:29Z</time>
      </trkpt>
      <trkpt lat="44.0354" lon="4.5273">
        <ele>197.2075195</ele>
        <time>2012-08-07T08:57:45Z</time>
      </trkpt>
      <trkpt lat="44.03583" lon="4.52747">
        <ele>201.0528564</ele>
        <time>2012-08-07T08:58:02Z</time>
      </trkpt>
      <trkpt lat="44.03628" lon="4.52761">
        <ele>203.4561768</ele>
        <time>2012-08-07T08:58:19Z</time>
      </trkpt>
      <trkpt lat="44.03675" lon="4.52769">
        <ele>204.4174805</ele>
        <time>2012-08-07T08:58:37Z</time>
      </trkpt>
      <trkpt lat="44.03722" lon="4.52768">
        <ele>207.7821045</ele>
        <time>2012-08-07T08:58:54Z</time>
      </trkpt>
      <trkpt lat="44.03769" lon="4.52755">
        <ele>211.1467285</ele>
        <time>2012-08-07T08:59:11Z</time>
      </trkpt>
      <trkpt lat="44.03811" lon="4.52737">
        <ele>212.588623</ele>
        <time>2012-08-07T08:59:28Z</time>
      </trkpt>
      <trkpt lat="44.0385" lon="4.52703">
        <ele>214.5112305</ele>
        <time>2012-08-07T08:59:45Z</time>
      </trkpt>
      <trkpt lat="44.03894" lon="4.52689">
        <ele>215.4726563</ele>
        <time>2012-08-07T09:00:02Z</time>
      </trkpt>
      <trkpt lat="44.03939" lon="4.52681">
        <ele>217.3953857</ele>
        <time>2012-08-07T09:00:19Z</time>
      </trkpt>
      <trkpt lat="44.03984" lon="4.52661">
        <ele>220.7598877</ele>
        <time>2012-08-07T09:00:35Z</time>
      </trkpt>
      <trkpt lat="44.04031" lon="4.52652">
        <ele>225.0859375</ele>
        <time>2012-08-07T09:00:52Z</time>
      </trkpt>
      <trkpt lat="44.04077" lon="4.52629">
        <ele>231.8149414</ele>
        <time>2012-08-07T09:01:09Z</time>
      </trkpt>
      <trkpt lat="44.04117" lon="4.52648">
        <ele>227.4891357</ele>
        <time>2012-08-07T09:01:25Z</time>
      </trkpt>
      <trkpt lat="44.04144" lon="4.52696">
        <ele>223.163208</ele>
        <time>2012-08-07T09:01:40Z</time>
      </trkpt>
      <trkpt lat="44.04183" lon="4.52666">
        <ele>221.7211914</ele>
        <time>2012-08-07T09:01:52Z</time>
      </trkpt>
      <trkpt lat="44.04228" lon="4.52664">
        <ele>219.3179932</ele>
        <time>2012-08-07T09:02:04Z</time>
      </trkpt>
      <trkpt lat="44.04275" lon="4.52669">
        <ele>217.3953857</ele>
        <time>2012-08-07T09:02:16Z</time>
      </trkpt>
      <trkpt lat="44.04318" lon="4.52693">
        <ele>217.8759766</ele>
        <time>2012-08-07T09:02:28Z</time>
      </trkpt>
      <trkpt lat="44.04364" lon="4.52716">
        <ele>216.43396</ele>
        <time>2012-08-07T09:02:42Z</time>
      </trkpt>
      <trkpt lat="44.04402" lon="4.52753">
        <ele>208.2628174</ele>
        <time>2012-08-07T09:02:56Z</time>
      </trkpt>
      <trkpt lat="44.04444" lon="4.5279">
        <ele>202.494873</ele>
        <time>2012-08-07T09:03:10Z</time>
      </trkpt>
      <trkpt lat="44.04492" lon="4.52813">
        <ele>196.2463379</ele>
        <time>2012-08-07T09:03:22Z</time>
      </trkpt>
      <trkpt lat="44.0454" lon="4.52833">
        <ele>192.401123</ele>
        <time>2012-08-07T09:03:34Z</time>
      </trkpt>
      <trkpt lat="44.04584" lon="4.52852">
        <ele>189.036377</ele>
        <time>2012-08-07T09:03:46Z</time>
      </trkpt>
      <trkpt lat="44.04629" lon="4.52871">
        <ele>187.5943604</ele>
        <time>2012-08-07T09:04:00Z</time>
      </trkpt>
      <trkpt lat="44.04674" lon="4.52888">
        <ele>187.1137695</ele>
        <time>2012-08-07T09:04:13Z</time>
      </trkpt>
      <trkpt lat="44.0472" lon="4.52906">
        <ele>186.6331787</ele>
        <time>2012-08-07T09:04:26Z</time>
      </trkpt>
      <trkpt lat="44.04762" lon="4.52929">
        <ele>186.6331787</ele>
        <time>2012-08-07T09:04:38Z</time>
      </trkpt>
      <trkpt lat="44.04808" lon="4.52953">
        <ele>186.6331787</ele>
        <time>2012-08-07T09:04:51Z</time>
      </trkpt>
      <trkpt lat="44.04844" lon="4.5299">
        <ele>186.6331787</ele>
        <time>2012-08-07T09:05:04Z</time>
      </trkpt>
      <trkpt lat="44.04889" lon="4.53002">
        <ele>187.5943604</ele>
        <time>2012-08-07T09:05:16Z</time>
      </trkpt>
      <trkpt lat="44.04924" lon="4.53042">
        <ele>187.5943604</ele>
        <time>2012-08-07T09:05:29Z</time>
      </trkpt>
      <trkpt lat="44.04953" lon="4.53086">
        <ele>190.9589844</ele>
        <time>2012-08-07T09:09:10Z</time>
      </trkpt>
      <trkpt lat="44.04982" lon="4.53132">
        <ele>192.8817139</ele>
        <time>2012-08-07T09:09:36Z</time>
      </trkpt>
      <trkpt lat="44.04976" lon="4.53121">
        <ele>192.401123</ele>
        <time>2012-08-07T09:09:58Z</time>
      </trkpt>
      <trkpt lat="44.0497" lon="4.53166">
        <ele>191.9202881</ele>
        <time>2012-08-07T09:10:20Z</time>
      </trkpt>
      <trkpt lat="44.04928" lon="4.53195">
        <ele>189.5169678</ele>
        <time>2012-08-07T09:10:35Z</time>
      </trkpt>
      <trkpt lat="44.049" lon="4.53245">
        <ele>188.0750732</ele>
        <time>2012-08-07T09:10:53Z</time>
      </trkpt>
      <trkpt lat="44.04924" lon="4.53267">
        <ele>188.0750732</ele>
        <time>2012-08-07T09:11:21Z</time>
      </trkpt>
      <trkpt lat="44.04968" lon="4.53253">
        <ele>190.4783936</ele>
        <time>2012-08-07T09:11:38Z</time>
      </trkpt>
      <trkpt lat="44.05013" lon="4.53238">
        <ele>192.401123</ele>
        <time>2012-08-07T09:11:55Z</time>
      </trkpt>
      <trkpt lat="44.05023" lon="4.53186">
        <ele>193.3623047</ele>
        <time>2012-08-07T09:12:10Z</time>
      </trkpt>
      <trkpt lat="44.05018" lon="4.53227">
        <ele>192.8817139</ele>
        <time>2012-08-07T09:12:36Z</time>
      </trkpt>
      <trkpt lat="44.0504" lon="4.5328">
        <ele>195.765625</ele>
        <time>2012-08-07T09:12:53Z</time>
      </trkpt>
      <trkpt lat="44.05062" lon="4.53334">
        <ele>200.0916748</ele>
        <time>2012-08-07T09:13:13Z</time>
      </trkpt>
      <trkpt lat="44.05104" lon="4.53351">
        <ele>201.0528564</ele>
        <time>2012-08-07T09:13:33Z</time>
      </trkpt>
      <trkpt lat="44.05144" lon="4.53327">
        <ele>204.8980713</ele>
        <time>2012-08-07T09:13:52Z</time>
      </trkpt>
      <trkpt lat="44.05184" lon="4.533">
        <ele>208.7434082</ele>
        <time>2012-08-07T09:14:12Z</time>
      </trkpt>
      <trkpt lat="44.05219" lon="4.53276">
        <ele>215.9532471</ele>
        <time>2012-08-07T09:14:39Z</time>
      </trkpt>
      <trkpt lat="44.05245" lon="4.53313">
        <ele>222.2017822</ele>
        <time>2012-08-07T09:15:07Z</time>
      </trkpt>
      <trkpt lat="44.05278" lon="4.53351">
        <ele>219.3179932</ele>
        <time>2012-08-07T09:15:25Z</time>
      </trkpt>
      <trkpt lat="44.05323" lon="4.53365">
        <ele>221.7211914</ele>
        <time>2012-08-07T09:15:47Z</time>
      </trkpt>
      <trkpt lat="44.05371" lon="4.53353">
        <ele>224.1245117</ele>
        <time>2012-08-07T09:16:07Z</time>
      </trkpt>
      <trkpt lat="44.0542" lon="4.53353">
        <ele>221.7211914</ele>
        <time>2012-08-07T09:16:20Z</time>
      </trkpt>
      <trkpt lat="44.05466" lon="4.53368">
        <ele>221.2406006</ele>
        <time>2012-08-07T09:16:35Z</time>
      </trkpt>
      <trkpt lat="44.05491" lon="4.53385">
        <ele>226.527832</ele>
        <time>2012-08-07T09:16:55Z</time>
      </trkpt>
      <trkpt lat="44.05529" lon="4.53354">
        <ele>231.3343506</ele>
        <time>2012-08-07T09:17:14Z</time>
      </trkpt>
      <trkpt lat="44.05557" lon="4.53307">
        <ele>232.7764893</ele>
        <time>2012-08-07T09:17:31Z</time>
      </trkpt>
      <trkpt lat="44.05598" lon="4.53275">
        <ele>236.6217041</ele>
        <time>2012-08-07T09:17:50Z</time>
      </trkpt>
      <trkpt lat="44.05637" lon="4.53238">
        <ele>240.467041</ele>
        <time>2012-08-07T09:18:08Z</time>
      </trkpt>
      <trkpt lat="44.05679" lon="4.53204">
        <ele>242.8702393</ele>
        <time>2012-08-07T09:18:25Z</time>
      </trkpt>
      <trkpt lat="44.05675" lon="4.53151">
        <ele>245.7541504</ele>
        <time>2012-08-07T09:18:42Z</time>
      </trkpt>
      <trkpt lat="44.05652" lon="4.53095">
        <ele>244.3122559</ele>
        <time>2012-08-07T09:18:57Z</time>
      </trkpt>
      <trkpt lat="44.05623" lon="4.53043">
        <ele>243.3508301</ele>
        <time>2012-08-07T09:19:13Z</time>
      </trkpt>
      <trkpt lat="44.05579" lon="4.53012">
        <ele>240.9476318</ele>
        <time>2012-08-07T09:19:43Z</time>
      </trkpt>
      <trkpt lat="44.05541" lon="4.5297">
        <ele>239.9862061</ele>
        <time>2012-08-07T09:20:01Z</time>
      </trkpt>
      <trkpt lat="44.05498" lon="4.52943">
        <ele>241.4282227</ele>
        <time>2012-08-07T09:20:20Z</time>
      </trkpt>
      <trkpt lat="44.05486" lon="4.52893">
        <ele>243.831543</ele>
        <time>2012-08-07T09:20:44Z</time>
      </trkpt>
      <trkpt lat="44.05481" lon="4.52828">
        <ele>252.0028076</ele>
        <time>2012-08-07T09:21:10Z</time>
      </trkpt>
      <trkpt lat="44.05472" lon="4.52761">
        <ele>254.8865967</ele>
        <time>2012-08-07T09:21:30Z</time>
      </trkpt>
      <trkpt lat="44.05449" lon="4.52708">
        <ele>254.8865967</ele>
        <time>2012-08-07T09:21:47Z</time>
      </trkpt>
      <trkpt lat="44.05443" lon="4.52642">
        <ele>252.4833984</ele>
        <time>2012-08-07T09:22:06Z</time>
      </trkpt>
      <trkpt lat="44.05434" lon="4.52585">
        <ele>244.3122559</ele>
        <time>2012-08-07T09:22:29Z</time>
      </trkpt>
      <trkpt lat="44.05427" lon="4.52516">
        <ele>238.0635986</ele>
        <time>2012-08-07T09:22:46Z</time>
      </trkpt>
      <trkpt lat="44.05389" lon="4.52517">
        <ele>233.7376709</ele>
        <time>2012-08-07T09:23:02Z</time>
      </trkpt>
      <trkpt lat="44.05363" lon="4.52566">
        <ele>230.8537598</ele>
        <time>2012-08-07T09:23:17Z</time>
      </trkpt>
      <trkpt lat="44.05341" lon="4.5252">
        <ele>229.4117432</ele>
        <time>2012-08-07T09:23:29Z</time>
      </trkpt>
      <trkpt lat="44.05343" lon="4.52459">
        <ele>224.6052246</ele>
        <time>2012-08-07T09:23:45Z</time>
      </trkpt>
      <trkpt lat="44.05332" lon="4.52393">
        <ele>223.163208</ele>
        <time>2012-08-07T09:24:02Z</time>
      </trkpt>
      <trkpt lat="44.05326" lon="4.52331">
        <ele>222.2017822</ele>
        <time>2012-08-07T09:24:14Z</time>
      </trkpt>
      <trkpt lat="44.05326" lon="4.52266">
        <ele>222.6824951</ele>
        <time>2012-08-07T09:24:26Z</time>
      </trkpt>
      <trkpt lat="44.05325" lon="4.522">
        <ele>221.2406006</ele>
        <time>2012-08-07T09:24:41Z</time>
      </trkpt>
      <trkpt lat="44.05325" lon="4.52134">
        <ele>220.2791748</ele>
        <time>2012-08-07T09:24:58Z</time>
      </trkpt>
      <trkpt lat="44.05323" lon="4.52068">
        <ele>218.3565674</ele>
        <time>2012-08-07T09:25:10Z</time>
      </trkpt>
      <trkpt lat="44.05306" lon="4.52005">
        <ele>216.43396</ele>
        <time>2012-08-07T09:25:21Z</time>
      </trkpt>
      <trkpt lat="44.05274" lon="4.51957">
        <ele>215.9532471</ele>
        <time>2012-08-07T09:25:31Z</time>
      </trkpt>
      <trkpt lat="44.05237" lon="4.51916">
        <ele>215.9532471</ele>
        <time>2012-08-07T09:25:43Z</time>
      </trkpt>
      <trkpt lat="44.05204" lon="4.51869">
        <ele>214.0306396</ele>
        <time>2012-08-07T09:25:54Z</time>
      </trkpt>
      <trkpt lat="44.05174" lon="4.5182">
        <ele>212.1080322</ele>
        <time>2012-08-07T09:26:05Z</time>
      </trkpt>
      <trkpt lat="44.05141" lon="4.51773">
        <ele>210.6660156</ele>
        <time>2012-08-07T09:26:17Z</time>
      </trkpt>
      <trkpt lat="44.05109" lon="4.51726">
        <ele>209.2241211</ele>
        <time>2012-08-07T09:26:29Z</time>
      </trkpt>
      <trkpt lat="44.05076" lon="4.51682">
        <ele>208.7434082</ele>
        <time>2012-08-07T09:26:45Z</time>
      </trkpt>
      <trkpt lat="44.05044" lon="4.51637">
        <ele>208.2628174</ele>
        <time>2012-08-07T09:27:03Z</time>
      </trkpt>
      <trkpt lat="44.05011" lon="4.51591">
        <ele>208.7434082</ele>
        <time>2012-08-07T09:27:19Z</time>
      </trkpt>
      <trkpt lat="44.0498" lon="4.51546">
        <ele>209.704834</ele>
        <time>2012-08-07T09:27:34Z</time>
      </trkpt>
      <trkpt lat="44.04946" lon="4.51501">
        <ele>211.1467285</ele>
        <time>2012-08-07T09:27:50Z</time>
      </trkpt>
      <trkpt lat="44.04915" lon="4.51474">
        <ele>212.588623</ele>
        <time>2012-08-07T09:33:05Z</time>
      </trkpt>
      <trkpt lat="44.04873" lon="4.51458">
        <ele>215.4726563</ele>
        <time>2012-08-07T09:33:28Z</time>
      </trkpt>
      <trkpt lat="44.04831" lon="4.51442">
        <ele>219.3179932</ele>
        <time>2012-08-07T09:34:15Z</time>
      </trkpt>
      <trkpt lat="44.04786" lon="4.51436">
        <ele>222.6824951</ele>
        <time>2012-08-07T09:34:44Z</time>
      </trkpt>
      <trkpt lat="44.04731" lon="4.51461">
        <ele>228.4504395</ele>
        <time>2012-08-07T09:35:21Z</time>
      </trkpt>
      <trkpt lat="44.04709" lon="4.5141">
        <ele>230.3730469</ele>
        <time>2012-08-07T09:35:47Z</time>
      </trkpt>
      <trkpt lat="44.04716" lon="4.51349">
        <ele>232.7764893</ele>
        <time>2012-08-07T09:36:09Z</time>
      </trkpt>
      <trkpt lat="44.04722" lon="4.51292">
        <ele>237.1022949</ele>
        <time>2012-08-07T09:36:36Z</time>
      </trkpt>
      <trkpt lat="44.04726" lon="4.51231">
        <ele>237.5828857</ele>
        <time>2012-08-07T09:36:58Z</time>
      </trkpt>
      <trkpt lat="44.0475" lon="4.51175">
        <ele>241.9089355</ele>
        <time>2012-08-07T09:37:24Z</time>
      </trkpt>
      <trkpt lat="44.04743" lon="4.51123">
        <ele>246.2348633</ele>
        <time>2012-08-07T09:37:46Z</time>
      </trkpt>
      <trkpt lat="44.04702" lon="4.51108">
        <ele>238.5443115</ele>
        <time>2012-08-07T09:38:09Z</time>
      </trkpt>
      <trkpt lat="44.04681" lon="4.51077">
        <ele>236.1409912</ele>
        <time>2012-08-07T09:38:30Z</time>
      </trkpt>
      <trkpt lat="44.04641" lon="4.51042">
        <ele>236.1409912</ele>
        <time>2012-08-07T09:38:44Z</time>
      </trkpt>
      <trkpt lat="44.04614" lon="4.50991">
        <ele>236.6217041</ele>
        <time>2012-08-07T09:39:00Z</time>
      </trkpt>
      <trkpt lat="44.0457" lon="4.51013">
        <ele>234.2183838</ele>
        <time>2012-08-07T09:39:14Z</time>
      </trkpt>
      <trkpt lat="44.04556" lon="4.51022">
        <ele>235.1796875</ele>
        <time>2012-08-07T09:41:29Z</time>
      </trkpt>
      <trkpt lat="44.04526" lon="4.51072">
        <ele>232.7764893</ele>
        <time>2012-08-07T09:41:45Z</time>
      </trkpt>
      <trkpt lat="44.04491" lon="4.51123">
        <ele>230.8537598</ele>
        <time>2012-08-07T09:41:59Z</time>
      </trkpt>
      <trkpt lat="44.04451" lon="4.51157">
        <ele>227.0085449</ele>
        <time>2012-08-07T09:42:08Z</time>
      </trkpt>
      <trkpt lat="44.04406" lon="4.51178">
        <ele>223.6437988</ele>
        <time>2012-08-07T09:42:18Z</time>
      </trkpt>
      <trkpt lat="44.04358" lon="4.51194">
        <ele>219.798584</ele>
        <time>2012-08-07T09:42:29Z</time>
      </trkpt>
      <trkpt lat="44.04318" lon="4.51172">
        <ele>216.43396</ele>
        <time>2012-08-07T09:42:44Z</time>
      </trkpt>
      <trkpt lat="44.04278" lon="4.51141">
        <ele>214.5112305</ele>
        <time>2012-08-07T09:42:54Z</time>
      </trkpt>
      <trkpt lat="44.04237" lon="4.51104">
        <ele>213.0693359</ele>
        <time>2012-08-07T09:43:05Z</time>
      </trkpt>
      <trkpt lat="44.04195" lon="4.51068">
        <ele>212.1080322</ele>
        <time>2012-08-07T09:43:17Z</time>
      </trkpt>
      <trkpt lat="44.04152" lon="4.51055">
        <ele>206.8206787</ele>
        <time>2012-08-07T09:43:37Z</time>
      </trkpt>
      <trkpt lat="44.04111" lon="4.51036">
        <ele>204.8980713</ele>
        <time>2012-08-07T09:43:52Z</time>
      </trkpt>
      <trkpt lat="44.04066" lon="4.51014">
        <ele>203.9368896</ele>
        <time>2012-08-07T09:44:05Z</time>
      </trkpt>
      <trkpt lat="44.04046" lon="4.50959">
        <ele>202.494873</ele>
        <time>2012-08-07T09:44:17Z</time>
      </trkpt>
      <trkpt lat="44.04029" lon="4.50894">
        <ele>203.4561768</ele>
        <time>2012-08-07T09:44:26Z</time>
      </trkpt>
      <trkpt lat="44.04032" lon="4.50825">
        <ele>203.4561768</ele>
        <time>2012-08-07T09:44:35Z</time>
      </trkpt>
      <trkpt lat="44.04016" lon="4.5076">
        <ele>199.130127</ele>
        <time>2012-08-07T09:44:48Z</time>
      </trkpt>
      <trkpt lat="44.04011" lon="4.50698">
        <ele>193.3623047</ele>
        <time>2012-08-07T09:45:02Z</time>
      </trkpt>
      <trkpt lat="44.0402" lon="4.50635">
        <ele>189.5169678</ele>
        <time>2012-08-07T09:45:13Z</time>
      </trkpt>
      <trkpt lat="44.04021" lon="4.50573">
        <ele>188.0750732</ele>
        <time>2012-08-07T09:45:25Z</time>
      </trkpt>
      <trkpt lat="44.03997" lon="4.50513">
        <ele>185.6717529</ele>
        <time>2012-08-07T09:45:39Z</time>
      </trkpt>
      <trkpt lat="44.0397" lon="4.50457">
        <ele>183.2684326</ele>
        <time>2012-08-07T09:45:50Z</time>
      </trkpt>
      <trkpt lat="44.03947" lon="4.50405">
        <ele>181.3458252</ele>
        <time>2012-08-07T09:46:01Z</time>
      </trkpt>
      <trkpt lat="44.03903" lon="4.50366">
        <ele>178.4619141</ele>
        <time>2012-08-07T09:46:16Z</time>
      </trkpt>
      <trkpt lat="44.03884" lon="4.50307">
        <ele>177.5006104</ele>
        <time>2012-08-07T09:46:27Z</time>
      </trkpt>
      <trkpt lat="44.03859" lon="4.5025">
        <ele>177.9812012</ele>
        <time>2012-08-07T09:46:40Z</time>
      </trkpt>
      <trkpt lat="44.03893" lon="4.50233">
        <ele>186.6331787</ele>
        <time>2012-08-07T09:47:09Z</time>
      </trkpt>
      <trkpt lat="44.03943" lon="4.50249">
        <ele>190.4783936</ele>
        <time>2012-08-07T09:47:33Z</time>
      </trkpt>
      <trkpt lat="44.03997" lon="4.50249">
        <ele>193.8430176</ele>
        <time>2012-08-07T09:47:55Z</time>
      </trkpt>
      <trkpt lat="44.04039" lon="4.50202">
        <ele>195.2849121</ele>
        <time>2012-08-07T09:48:11Z</time>
      </trkpt>
      <trkpt lat="44.04079" lon="4.50157">
        <ele>195.2849121</ele>
        <time>2012-08-07T09:48:27Z</time>
      </trkpt>
      <trkpt lat="44.04096" lon="4.50098">
        <ele>195.765625</ele>
        <time>2012-08-07T09:48:45Z</time>
      </trkpt>
      <trkpt lat="44.04118" lon="4.50035">
        <ele>194.8043213</ele>
        <time>2012-08-07T09:49:02Z</time>
      </trkpt>
      <trkpt lat="44.04141" lon="4.49973">
        <ele>196.2463379</ele>
        <time>2012-08-07T09:49:17Z</time>
      </trkpt>
      <trkpt lat="44.04152" lon="4.49906">
        <ele>199.6108398</ele>
        <time>2012-08-07T09:49:32Z</time>
      </trkpt>
      <trkpt lat="44.04169" lon="4.49841">
        <ele>202.9754639</ele>
        <time>2012-08-07T09:49:45Z</time>
      </trkpt>
      <trkpt lat="44.04184" lon="4.49781">
        <ele>202.9754639</ele>
        <time>2012-08-07T09:49:59Z</time>
      </trkpt>
      <trkpt lat="44.04213" lon="4.49736">
        <ele>203.9368896</ele>
        <time>2012-08-07T09:50:15Z</time>
      </trkpt>
      <trkpt lat="44.04216" lon="4.49675">
        <ele>206.8206787</ele>
        <time>2012-08-07T09:50:33Z</time>
      </trkpt>
      <trkpt lat="44.04222" lon="4.49613">
        <ele>207.3013916</ele>
        <time>2012-08-07T09:50:53Z</time>
      </trkpt>
      <trkpt lat="44.04225" lon="4.49549">
        <ele>203.9368896</ele>
        <time>2012-08-07T09:51:11Z</time>
      </trkpt>
      <trkpt lat="44.04235" lon="4.49484">
        <ele>204.4174805</ele>
        <time>2012-08-07T09:51:30Z</time>
      </trkpt>
      <trkpt lat="44.04247" lon="4.49422">
        <ele>207.7821045</ele>
        <time>2012-08-07T09:51:49Z</time>
      </trkpt>
      <trkpt lat="44.04249" lon="4.49358">
        <ele>211.6274414</ele>
        <time>2012-08-07T09:52:08Z</time>
      </trkpt>
      <trkpt lat="44.04245" lon="4.49294">
        <ele>215.4726563</ele>
        <time>2012-08-07T09:52:27Z</time>
      </trkpt>
      <trkpt lat="44.04256" lon="4.49232">
        <ele>220.2791748</ele>
        <time>2012-08-07T09:52:45Z</time>
      </trkpt>
      <trkpt lat="44.04277" lon="4.49175">
        <ele>230.3730469</ele>
        <time>2012-08-07T09:53:03Z</time>
      </trkpt>
      <trkpt lat="44.04288" lon="4.49124">
        <ele>237.5828857</ele>
        <time>2012-08-07T09:53:22Z</time>
      </trkpt>
      <trkpt lat="44.04246" lon="4.49149">
        <ele>235.1796875</ele>
        <time>2012-08-07T09:53:37Z</time>
      </trkpt>
      <trkpt lat="44.04203" lon="4.49173">
        <ele>232.7764893</ele>
        <time>2012-08-07T09:53:51Z</time>
      </trkpt>
      <trkpt lat="44.04165" lon="4.49213">
        <ele>229.892334</ele>
        <time>2012-08-07T09:54:06Z</time>
      </trkpt>
      <trkpt lat="44.04131" lon="4.49266">
        <ele>228.9311523</ele>
        <time>2012-08-07T09:54:16Z</time>
      </trkpt>
      <trkpt lat="44.0409" lon="4.49299">
        <ele>227.4891357</ele>
        <time>2012-08-07T09:54:26Z</time>
      </trkpt>
      <trkpt lat="44.04047" lon="4.4933">
        <ele>225.5665283</ele>
        <time>2012-08-07T09:54:36Z</time>
      </trkpt>
      <trkpt lat="44.04003" lon="4.49357">
        <ele>222.6824951</ele>
        <time>2012-08-07T09:54:45Z</time>
      </trkpt>
      <trkpt lat="44.03966" lon="4.49402">
        <ele>220.7598877</ele>
        <time>2012-08-07T09:54:55Z</time>
      </trkpt>
      <trkpt lat="44.03959" lon="4.49353">
        <ele>221.7211914</ele>
        <time>2012-08-07T09:55:09Z</time>
      </trkpt>
      <trkpt lat="44.03968" lon="4.49292">
        <ele>222.2017822</ele>
        <time>2012-08-07T09:55:22Z</time>
      </trkpt>
      <trkpt lat="44.03978" lon="4.4923">
        <ele>224.6052246</ele>
        <time>2012-08-07T09:55:37Z</time>
      </trkpt>
      <trkpt lat="44.03985" lon="4.49166">
        <ele>225.5665283</ele>
        <time>2012-08-07T09:55:51Z</time>
      </trkpt>
      <trkpt lat="44.04" lon="4.49107">
        <ele>226.527832</ele>
        <time>2012-08-07T09:56:04Z</time>
      </trkpt>
      <trkpt lat="44.04019" lon="4.49044">
        <ele>227.9697266</ele>
        <time>2012-08-07T09:56:17Z</time>
      </trkpt>
      <trkpt lat="44.04046" lon="4.48989">
        <ele>229.892334</ele>
        <time>2012-08-07T09:56:30Z</time>
      </trkpt>
      <trkpt lat="44.0407" lon="4.48931">
        <ele>229.892334</ele>
        <time>2012-08-07T09:56:44Z</time>
      </trkpt>
      <trkpt lat="44.04033" lon="4.48929">
        <ele>225.5665283</ele>
        <time>2012-08-07T09:56:59Z</time>
      </trkpt>
      <trkpt lat="44.03989" lon="4.48946">
        <ele>226.0471191</ele>
        <time>2012-08-07T09:57:11Z</time>
      </trkpt>
      <trkpt lat="44.03943" lon="4.48966">
        <ele>228.4504395</ele>
        <time>2012-08-07T09:57:27Z</time>
      </trkpt>
      <trkpt lat="44.03898" lon="4.48974">
        <ele>229.4117432</ele>
        <time>2012-08-07T09:57:42Z</time>
      </trkpt>
      <trkpt lat="44.03878" lon="4.48936">
        <ele>230.8537598</ele>
        <time>2012-08-07T09:57:56Z</time>
      </trkpt>
      <trkpt lat="44.03859" lon="4.48893">
        <ele>230.8537598</ele>
        <time>2012-08-07T09:58:12Z</time>
      </trkpt>
      <trkpt lat="44.0383" lon="4.48845">
        <ele>229.892334</ele>
        <time>2012-08-07T09:58:27Z</time>
      </trkpt>
      <trkpt lat="44.03816" lon="4.48782">
        <ele>233.7376709</ele>
        <time>2012-08-07T09:58:42Z</time>
      </trkpt>
      <trkpt lat="44.03791" lon="4.48729">
        <ele>233.2570801</ele>
        <time>2012-08-07T09:59:06Z</time>
      </trkpt>
      <trkpt lat="44.03751" lon="4.48696">
        <ele>229.892334</ele>
        <time>2012-08-07T09:59:19Z</time>
      </trkpt>
      <trkpt lat="44.03737" lon="4.48637">
        <ele>227.0085449</ele>
        <time>2012-08-07T09:59:29Z</time>
      </trkpt>
      <trkpt lat="44.03718" lon="4.48576">
        <ele>224.6052246</ele>
        <time>2012-08-07T09:59:42Z</time>
      </trkpt>
      <trkpt lat="44.03704" lon="4.48518">
        <ele>224.1245117</ele>
        <time>2012-08-07T09:59:53Z</time>
      </trkpt>
      <trkpt lat="44.03701" lon="4.48457">
        <ele>224.1245117</ele>
        <time>2012-08-07T10:00:08Z</time>
      </trkpt>
      <trkpt lat="44.03666" lon="4.48414">
        <ele>223.163208</ele>
        <time>2012-08-07T10:00:22Z</time>
      </trkpt>
      <trkpt lat="44.03639" lon="4.48369">
        <ele>229.892334</ele>
        <time>2012-08-07T10:00:46Z</time>
      </trkpt>
      <trkpt lat="44.03596" lon="4.4834">
        <ele>238.5443115</ele>
        <time>2012-08-07T10:01:17Z</time>
      </trkpt>
      <trkpt lat="44.03599" lon="4.48307">
        <ele>247.6767578</ele>
        <time>2012-08-07T10:01:52Z</time>
      </trkpt>
      <trkpt lat="44.03583" lon="4.48292">
        <ele>246.2348633</ele>
        <time>2012-08-07T10:02:40Z</time>
      </trkpt>
      <trkpt lat="44.03615" lon="4.48313">
        <ele>256.8093262</ele>
        <time>2012-08-07T10:17:03Z</time>
      </trkpt>
      <trkpt lat="44.03587" lon="4.48325">
        <ele>240.467041</ele>
        <time>2012-08-07T10:17:18Z</time>
      </trkpt>
      <trkpt lat="44.03613" lon="4.48356">
        <ele>231.3343506</ele>
        <time>2012-08-07T10:17:33Z</time>
      </trkpt>
      <trkpt lat="44.03652" lon="4.48393">
        <ele>225.0859375</ele>
        <time>2012-08-07T10:17:46Z</time>
      </trkpt>
      <trkpt lat="44.03685" lon="4.48444">
        <ele>223.163208</ele>
        <time>2012-08-07T10:17:56Z</time>
      </trkpt>
      <trkpt lat="44.037" lon="4.48504">
        <ele>223.163208</ele>
        <time>2012-08-07T10:18:09Z</time>
      </trkpt>
      <trkpt lat="44.03707" lon="4.48564">
        <ele>225.5665283</ele>
        <time>2012-08-07T10:18:23Z</time>
      </trkpt>
      <trkpt lat="44.03723" lon="4.48625">
        <ele>227.0085449</ele>
        <time>2012-08-07T10:18:38Z</time>
      </trkpt>
      <trkpt lat="44.03743" lon="4.48683">
        <ele>228.9311523</ele>
        <time>2012-08-07T10:18:56Z</time>
      </trkpt>
      <trkpt lat="44.03778" lon="4.4872">
        <ele>234.6990967</ele>
        <time>2012-08-07T10:19:19Z</time>
      </trkpt>
      <trkpt lat="44.03775" lon="4.48761">
        <ele>236.1409912</ele>
        <time>2012-08-07T10:19:44Z</time>
      </trkpt>
      <trkpt lat="44.03735" lon="4.48794">
        <ele>228.9311523</ele>
        <time>2012-08-07T10:20:24Z</time>
      </trkpt>
      <trkpt lat="44.03699" lon="4.48846">
        <ele>219.3179932</ele>
        <time>2012-08-07T10:20:49Z</time>
      </trkpt>
      <trkpt lat="44.03664" lon="4.48895">
        <ele>215.9532471</ele>
        <time>2012-08-07T10:21:01Z</time>
      </trkpt>
      <trkpt lat="44.0364" lon="4.48948">
        <ele>210.6660156</ele>
        <time>2012-08-07T10:21:13Z</time>
      </trkpt>
      <trkpt lat="44.03602" lon="4.48983">
        <ele>204.8980713</ele>
        <time>2012-08-07T10:21:32Z</time>
      </trkpt>
      <trkpt lat="44.03589" lon="4.49046">
        <ele>201.5335693</ele>
        <time>2012-08-07T10:21:43Z</time>
      </trkpt>
      <trkpt lat="44.03585" lon="4.49116">
        <ele>202.9754639</ele>
        <time>2012-08-07T10:22:03Z</time>
      </trkpt>
      <trkpt lat="44.03582" lon="4.49182">
        <ele>203.9368896</ele>
        <time>2012-08-07T10:22:24Z</time>
      </trkpt>
      <trkpt lat="44.03581" lon="4.49252">
        <ele>204.4174805</ele>
        <time>2012-08-07T10:22:45Z</time>
      </trkpt>
      <trkpt lat="44.03586" lon="4.4932">
        <ele>201.5335693</ele>
        <time>2012-08-07T10:22:58Z</time>
      </trkpt>
      <trkpt lat="44.03593" lon="4.49383">
        <ele>201.5335693</ele>
        <time>2012-08-07T10:23:10Z</time>
      </trkpt>
      <trkpt lat="44.03596" lon="4.49451">
        <ele>205.3787842</ele>
        <time>2012-08-07T10:23:27Z</time>
      </trkpt>
      <trkpt lat="44.03588" lon="4.49522">
        <ele>206.8206787</ele>
        <time>2012-08-07T10:23:44Z</time>
      </trkpt>
      <trkpt lat="44.03562" lon="4.49571">
        <ele>204.8980713</ele>
        <time>2012-08-07T10:24:00Z</time>
      </trkpt>
      <trkpt lat="44.03517" lon="4.49583">
        <ele>189.036377</ele>
        <time>2012-08-07T10:24:16Z</time>
      </trkpt>
      <trkpt lat="44.03475" lon="4.49584">
        <ele>173.1746826</ele>
        <time>2012-08-07T10:24:29Z</time>
      </trkpt>
      <trkpt lat="44.03445" lon="4.49557">
        <ele>160.1968994</ele>
        <time>2012-08-07T10:25:00Z</time>
      </trkpt>
      <trkpt lat="44.03398" lon="4.49535">
        <ele>153.9483643</ele>
        <time>2012-08-07T10:25:08Z</time>
      </trkpt>
      <trkpt lat="44.03354" lon="4.49515">
        <ele>150.5836182</ele>
        <time>2012-08-07T10:25:14Z</time>
      </trkpt>
      <trkpt lat="44.0332" lon="4.49482">
        <ele>152.9869385</ele>
        <time>2012-08-07T10:25:29Z</time>
      </trkpt>
      <trkpt lat="44.0329" lon="4.49436">
        <ele>151.064209</ele>
        <time>2012-08-07T10:25:43Z</time>
      </trkpt>
      <trkpt lat="44.03257" lon="4.49398">
        <ele>148.6610107</ele>
        <time>2012-08-07T10:25:58Z</time>
      </trkpt>
      <trkpt lat="44.03251" lon="4.49352">
        <ele>141.9317627</ele>
        <time>2012-08-07T10:27:55Z</time>
      </trkpt>
      <trkpt lat="44.03211" lon="4.49342">
        <ele>149.1416016</ele>
        <time>2012-08-07T14:06:39Z</time>
      </trkpt>
      <trkpt lat="44.03199" lon="4.49325">
        <ele>146.7384033</ele>
        <time>2012-08-07T14:56:17Z</time>
      </trkpt>
    </trkseg>
  </trk>
</gpx>